Time;durP1;ratioP1;P1;durP2;ratioP2;P2;SDS_P1;SDS_P2;PMS_P1;PMS_P2;Temp;Humidity;BMP_temperature;BMP_pressure;BME280_temperature;BME280_humidity;BME280_pressure;Samples;Min_cycle;Max_cycle;Signal;HPM_P1;HPM_P2
2021/06/18 01:42:14;;;;;;;;;;;;;;;27.60;76.90;98771.09;5098806;27;19926;-70
2021/06/18 01:44:39;;;;;;;;;;;;;;;27.23;77.12;98764.41;5110062;27;19916;-70
2021/06/18 01:47:07;;;;;;;;;;;;;;;26.95;81.21;98761.97;5092274;27;19916;-69
2021/06/18 01:49:34;;;;;;;;;;;;;;;26.48;86.68;98765.06;5094560;27;20035;-69
2021/06/18 01:51:59;;;;;;;;;;;;;;;26.82;87.62;98753.66;5091678;27;19958;-70
2021/06/18 01:54:27;;;;;;;;;;;;;;;27.26;80.69;98749.06;5092851;27;19965;-70
2021/06/18 01:56:53;;;;;;;;;;;;;;;27.12;81.75;98747.03;5091337;27;19923;-70
2021/06/18 01:59:19;;;;;;;;;;;;;;;27.13;80.89;98738.91;5090874;27;19976;-70
2021/06/18 02:01:45;;;;;;;;;;;;;;;27.39;83.11;98742.47;5091659;27;19923;-70
2021/06/18 02:04:11;;;;;;;;;;;;;;;27.11;79.32;98740.88;5092055;27;19926;-70
2021/06/18 02:06:37;;;;;;;;;;;;;;;26.93;81.31;98742.81;5108574;27;19919;-71
2021/06/18 02:09:03;;;;;;;;;;;;;;;26.87;80.28;98738.19;5090865;27;19924;-70
2021/06/18 02:11:29;;;;;;;;;;;;;;;27.15;81.26;98738.75;5109201;27;19935;-70
2021/06/18 02:13:55;;;;;;;;;;;;;;;27.04;77.09;98739.06;5091858;27;20414;-70
2021/06/18 02:16:20;;;;;;;;;;;;;;;26.41;84.18;98743.72;5091048;27;19927;-70
2021/06/18 02:18:46;;;;;;;;;;;;;;;26.78;81.60;98737.31;5091662;27;19927;-70
2021/06/18 02:21:12;;;;;;;;;;;;;;;27.24;80.61;98727.25;5090457;27;19923;-70
2021/06/18 02:23:37;;;;;;;;;;;;;;;27.05;81.79;98728.34;5091183;27;20002;-70
2021/06/18 02:26:04;;;;;;;;;;;;;;;27.25;74.87;98731.53;5091292;27;20159;-70
2021/06/18 02:28:29;;;;;;;;;;;;;;;27.50;79.97;98724.44;5091690;27;20284;-70
2021/06/18 02:30:55;;;;;;;;;;;;;;;27.39;76.08;98735.34;5092363;27;19934;-70
2021/06/18 02:33:21;;;;;;;;;;;;;;;27.37;81.08;98726.78;5109561;27;20106;-70
2021/06/18 02:35:49;;;;;;;;;;;;;;;26.95;80.38;98719.69;5089839;27;19915;-70
2021/06/18 02:38:15;;;;;;;;;;;;;;;27.01;74.83;98718.25;5091627;27;19919;-70
2021/06/18 02:40:41;;;;;;;;;;;;;;;26.09;85.39;98720.56;5092565;27;20054;-70
2021/06/18 02:43:06;;;;;;;;;;;;;;;26.27;79.89;98716.09;5091860;27;20326;-70
2021/06/18 02:45:32;;;;;;;;;;;;;;;26.05;87.22;98711.34;5091389;27;20390;-70
2021/06/18 02:48:02;;;;;;;;;;;;;;;26.48;85.95;98702.50;5109879;27;19919;-70
2021/06/18 02:50:46;;;;;;;;;;;;;;;25.54;88.19;98703.16;5092208;27;19934;-70
2021/06/18 02:53:17;;;;;;;;;;;;;;;25.30;94.82;98695.03;5110030;27;20398;-70
2021/06/18 02:55:43;;;;;;;;;;;;;;;24.66;96.39;98696.81;5109464;27;19946;-70
2021/06/18 02:58:14;;;;;;;;;;;;;;;24.43;100.00;98694.50;5090768;27;20263;-70
2021/06/18 03:00:40;;;;;;;;;;;;;;;24.03;100.00;98695.59;5091729;27;19915;-70
2021/06/18 03:03:06;;;;;;;;;;;;;;;24.27;100.00;98702.16;5088671;27;19934;-70
2021/06/18 03:05:32;;;;;;;;;;;;;;;24.88;100.00;98706.09;5089161;27;20305;-70
2021/06/18 03:08:04;;;;;;;;;;;;;;;25.49;99.16;98705.41;5090604;27;19955;-70
2021/06/18 03:10:37;;;;;;;;;;;;;;;25.53;98.79;98712.06;5090064;27;21209;-69
2021/06/18 03:13:04;;;;;;;;;;;;;;;25.03;100.00;98715.16;5091818;27;19938;-70
2021/06/18 03:15:31;;;;;;;;;;;;;;;24.35;100.00;98711.00;5089772;27;19920;-70
2021/06/18 03:17:56;;;;;;;;;;;;;;;24.97;100.00;98716.56;5090613;27;19919;-70
2021/06/18 03:20:22;;;;;;;;;;;;;;;25.77;88.20;98715.88;5112651;27;19927;-70
2021/06/18 03:22:48;;;;;;;;;;;;;;;26.40;92.91;98715.66;5090068;27;20346;-70
2021/06/18 03:25:13;;;;;;;;;;;;;;;26.65;89.35;98719.25;5089821;27;20834;-70
2021/06/18 03:27:39;;;;;;;;;;;;;;;26.61;88.34;98723.19;5092702;27;19920;-70
2021/06/18 03:30:05;;;;;;;;;;;;;;;26.65;89.25;98729.81;5090150;27;20315;-70
2021/06/18 03:32:30;;;;;;;;;;;;;;;26.76;84.41;98717.34;5106860;27;20649;-70
2021/06/18 03:34:56;;;;;;;;;;;;;;;26.64;78.83;98717.63;5086620;27;19966;-70
2021/06/18 03:37:21;;;;;;;;;;;;;;;26.67;81.72;98717.28;5108707;27;19923;-69
2021/06/18 03:39:47;;;;;;;;;;;;;;;26.76;81.20;98730.56;5085773;27;19930;-69
2021/06/18 03:42:12;;;;;;;;;;;;;;;26.69;85.20;98733.00;5090692;27;19924;-69
2021/06/18 03:44:38;;;;;;;;;;;;;;;26.27;87.10;98726.66;5088722;27;19920;-69
2021/06/18 03:47:05;;;;;;;;;;;;;;;26.34;80.38;98731.28;5087123;27;19938;-69
2021/06/18 03:49:30;;;;;;;;;;;;;;;26.37;82.94;98721.25;5093844;27;20397;-69
2021/06/18 03:51:56;;;;;;;;;;;;;;;26.64;79.18;98728.19;5092594;28;19915;-71
2021/06/18 03:54:22;;;;;;;;;;;;;;;26.58;81.25;98723.53;5092242;27;19920;-70
2021/06/18 03:56:48;;;;;;;;;;;;;;;25.62;89.23;98726.16;5093637;27;20059;-70
2021/06/18 03:59:15;;;;;;;;;;;;;;;25.96;88.33;98720.19;5094291;27;19994;-70
2021/06/18 04:01:41;;;;;;;;;;;;;;;26.32;83.02;98720.91;5093995;27;19920;-70
2021/06/18 04:04:06;;;;;;;;;;;;;;;26.24;83.21;98726.94;5096467;27;20346;-71
2021/06/18 04:06:31;;;;;;;;;;;;;;;26.38;89.38;98716.78;5093044;27;19937;-70
2021/06/18 04:08:57;;;;;;;;;;;;;;;26.32;86.83;98723.53;5093858;27;19919;-70
2021/06/18 04:11:22;;;;;;;;;;;;;;;25.92;86.19;98722.28;5092427;27;19924;-70
2021/06/18 04:13:48;;;;;;;;;;;;;;;26.08;89.33;98725.03;5093373;27;19922;-70
2021/06/18 04:16:13;;;;;;;;;;;;;;;26.81;77.87;98722.97;5092654;27;20092;-71
2021/06/18 04:18:42;;;;;;;;;;;;;;;27.05;85.12;98725.69;5092619;27;19955;-70
2021/06/18 04:21:10;;;;;;;;;;;;;;;26.84;81.99;98733.19;5110761;27;19964;-70
2021/06/18 04:23:36;;;;;;;;;;;;;;;26.43;87.91;98730.34;5111286;27;19919;-70
2021/06/18 04:26:01;;;;;;;;;;;;;;;26.18;89.94;98732.84;5110370;27;19930;-70
2021/06/18 04:28:27;;;;;;;;;;;;;;;26.43;89.61;98727.72;5112263;27;19920;-70
2021/06/18 04:30:52;;;;;;;;;;;;;;;26.54;84.80;98716.03;5113020;27;19938;-70
2021/06/18 04:33:18;;;;;;;;;;;;;;;26.69;86.65;98731.19;5109846;27;20446;-70
2021/06/18 04:35:43;;;;;;;;;;;;;;;27.20;89.98;98727.69;5109484;27;19923;-70
2021/06/18 04:38:08;;;;;;;;;;;;;;;27.63;83.76;98723.16;5109966;27;19919;-70
2021/06/18 04:40:34;;;;;;;;;;;;;;;27.74;87.16;98726.28;5091959;27;20290;-70
2021/06/18 04:42:59;;;;;;;;;;;;;;;27.89;86.98;98723.81;5110964;27;19923;-70
2021/06/18 04:45:25;;;;;;;;;;;;;;;27.88;85.24;98737.25;5112319;27;19949;-70
2021/06/18 04:47:51;;;;;;;;;;;;;;;27.89;88.28;98729.13;5109584;27;19923;-70
2021/06/18 04:50:16;;;;;;;;;;;;;;;27.75;85.90;98733.22;5110552;27;20030;-70
2021/06/18 04:52:42;;;;;;;;;;;;;;;27.82;82.27;98732.56;5089318;27;19922;-70
2021/06/18 04:55:09;;;;;;;;;;;;;;;28.10;86.75;98735.72;5108225;27;19919;-70
2021/06/18 04:57:35;;;;;;;;;;;;;;;28.17;86.71;98734.06;5092404;27;19972;-66
2021/06/18 05:00:00;;;;;;;;;;;;;;;28.34;81.12;98740.16;5109682;27;20394;-69
2021/06/18 05:02:26;;;;;;;;;;;;;;;28.37;83.23;98742.44;5089006;27;20457;-69
2021/06/18 05:04:51;;;;;;;;;;;;;;;28.55;85.86;98744.91;5085516;27;19920;-69
2021/06/18 05:07:17;;;;;;;;;;;;;;;28.76;84.71;98739.88;5107570;27;20343;-69
2021/06/18 05:09:42;;;;;;;;;;;;;;;28.48;75.30;98739.47;5088625;27;19920;-69
2021/06/18 05:12:08;;;;;;;;;;;;;;;28.68;79.07;98749.69;5106715;27;19966;-69
2021/06/18 05:14:33;;;;;;;;;;;;;;;28.63;82.72;98742.25;5107209;27;20010;-69
2021/06/18 05:16:58;;;;;;;;;;;;;;;28.68;79.28;98744.38;5107361;27;19924;-69
2021/06/18 05:19:24;;;;;;;;;;;;;;;28.81;68.76;98739.38;5109574;27;20027;-70
2021/06/18 05:21:49;;;;;;;;;;;;;;;29.08;78.31;98740.75;5109799;27;20003;-69
2021/06/18 05:24:14;;;;;;;;;;;;;;;28.52;78.66;98745.25;5110236;27;19918;-69
2021/06/18 05:26:41;;;;;;;;;;;;;;;28.10;80.95;98747.16;5091308;27;19911;-69
2021/06/18 05:29:07;;;;;;;;;;;;;;;28.92;73.79;98756.69;5093503;27;20375;-70
2021/06/18 05:31:32;;;;;;;;;;;;;;;29.17;70.05;98749.47;5091398;27;19973;-69
2021/06/18 05:33:58;;;;;;;;;;;;;;;28.88;78.36;98755.41;5092112;27;19915;-69
2021/06/18 05:36:23;;;;;;;;;;;;;;;28.45;82.42;98760.16;5090146;27;19964;-69
2021/06/18 05:38:48;;;;;;;;;;;;;;;29.09;76.93;98747.69;5109405;27;19912;-69
2021/06/18 05:41:14;;;;;;;;;;;;;;;29.08;77.17;98756.66;5108166;27;19912;-69
2021/06/18 05:43:39;;;;;;;;;;;;;;;28.46;86.90;98756.50;5110722;27;20029;-69
2021/06/18 05:46:05;;;;;;;;;;;;;;;28.43;75.60;98756.84;5109411;27;19977;-68
2021/06/18 05:48:30;;;;;;;;;;;;;;;28.47;74.48;98752.91;5109231;27;19916;-69
2021/06/18 05:50:56;;;;;;;;;;;;;;;29.11;81.78;98751.00;5109363;27;19920;-68
2021/06/18 05:53:21;;;;;;;;;;;;;;;29.72;76.73;98752.94;5109696;27;19927;-68
2021/06/18 05:55:47;;;;;;;;;;;;;;;29.44;78.18;98756.09;5109611;27;19922;-69
2021/06/18 05:58:12;;;;;;;;;;;;;;;28.88;77.87;98756.22;5109025;27;19912;-68
2021/06/18 06:00:38;;;;;;;;;;;;;;;29.95;75.57;98753.75;5109997;27;19972;-68
2021/06/18 06:03:03;;;;;;;;;;;;;;;30.12;73.74;98756.25;5108002;27;19934;-68
2021/06/18 06:05:28;;;;;;;;;;;;;;;30.10;74.68;98755.59;5108259;27;20581;-68
2021/06/18 06:07:54;;;;;;;;;;;;;;;29.23;76.17;98745.31;5090455;27;19926;-68
2021/06/18 06:10:20;;;;;;;;;;;;;;;30.15;72.75;98750.56;5108200;27;19950;-69
2021/06/18 06:12:45;;;;;;;;;;;;;;;29.97;76.46;98750.91;5107385;27;19976;-68
2021/06/18 06:15:11;;;;;;;;;;;;;;;29.96;77.77;98744.78;5108927;27;19920;-70
2021/06/18 06:17:36;;;;;;;;;;;;;;;28.81;82.94;98741.16;5114299;27;19956;-69
2021/06/18 06:20:03;;;;;;;;;;;;;;;28.95;80.06;98743.09;5089914;27;19915;-70
2021/06/18 06:22:28;;;;;;;;;;;;;;;29.68;78.94;98747.19;5108562;27;19919;-69
2021/06/18 06:24:53;;;;;;;;;;;;;;;29.42;77.63;98739.53;5090512;27;19915;-69
2021/06/18 06:27:19;;;;;;;;;;;;;;;29.74;73.09;98735.00;5090275;27;19962;-69
2021/06/18 06:29:44;;;;;;;;;;;;;;;30.09;75.60;98732.72;5107518;27;19930;-69
2021/06/18 06:32:10;;;;;;;;;;;;;;;30.72;74.30;98731.38;5108238;27;20294;-70
2021/06/18 06:34:35;;;;;;;;;;;;;;;30.18;69.33;98731.63;5107330;27;19919;-70
2021/06/18 06:37:00;;;;;;;;;;;;;;;30.34;74.06;98736.81;5107969;27;19919;-70
2021/06/18 06:39:26;;;;;;;;;;;;;;;29.90;79.96;98732.22;5107583;27;19912;-69
2021/06/18 06:41:51;;;;;;;;;;;;;;;30.89;71.92;98731.22;5107796;27;19920;-69
2021/06/18 06:44:17;;;;;;;;;;;;;;;30.13;76.98;98726.03;5108364;27;20462;-69
2021/06/18 06:46:42;;;;;;;;;;;;;;;30.49;74.61;98728.81;5109034;27;19930;-69
2021/06/18 06:49:07;;;;;;;;;;;;;;;31.37;72.69;98726.19;5107693;27;19927;-69
2021/06/18 06:51:33;;;;;;;;;;;;;;;31.88;71.29;98734.03;5108922;27;20266;-69
2021/06/18 06:53:58;;;;;;;;;;;;;;;31.18;75.37;98739.13;5088382;27;19915;-69
2021/06/18 06:56:24;;;;;;;;;;;;;;;30.72;75.12;98742.00;5089118;27;19919;-69
2021/06/18 06:58:51;;;;;;;;;;;;;;;31.96;67.27;98736.63;5107234;27;19916;-69
2021/06/18 07:01:16;;;;;;;;;;;;;;;31.48;70.01;98743.53;5089137;27;19965;-69
2021/06/18 07:03:42;;;;;;;;;;;;;;;32.57;65.08;98740.50;5106451;27;20398;-68
2021/06/18 07:06:08;;;;;;;;;;;;;;;33.09;59.37;98736.44;5107278;27;19994;-68
2021/06/18 07:08:33;;;;;;;;;;;;;;;31.89;65.71;98741.03;5107117;27;20026;-69
2021/06/18 07:10:59;;;;;;;;;;;;;;;33.49;56.89;98741.88;5089623;27;20382;-69
2021/06/18 07:13:24;;;;;;;;;;;;;;;33.78;54.68;98734.50;5086782;27;19916;-69
2021/06/18 07:15:50;;;;;;;;;;;;;;;33.82;54.07;98735.75;5107849;27;20358;-69
2021/06/18 07:18:15;;;;;;;;;;;;;;;33.57;54.50;98741.66;5088850;27;19912;-69
2021/06/18 07:20:41;;;;;;;;;;;;;;;32.62;61.20;98743.41;5089372;27;19943;-69
2021/06/18 07:23:06;;;;;;;;;;;;;;;33.33;58.02;98741.22;5106172;27;20383;-69
2021/06/18 07:25:32;;;;;;;;;;;;;;;33.68;53.63;98741.06;5107409;27;19938;-68
2021/06/18 07:27:57;;;;;;;;;;;;;;;34.01;53.52;98744.75;5106714;27;20385;-69
2021/06/18 07:30:23;;;;;;;;;;;;;;;34.66;51.42;98743.03;5106906;27;20434;-69
2021/06/18 07:32:49;;;;;;;;;;;;;;;34.03;57.29;98743.56;5087676;27;19916;-69
2021/06/18 07:35:15;;;;;;;;;;;;;;;34.58;51.56;98756.63;5095288;27;19918;-69
2021/06/18 07:37:41;;;;;;;;;;;;;;;34.66;46.49;98750.25;5106939;27;20294;-68
2021/06/18 07:40:06;;;;;;;;;;;;;;;35.17;49.40;98749.44;5106961;27;19915;-69
2021/06/18 07:42:32;;;;;;;;;;;;;;;34.92;50.61;98758.19;5107206;27;20006;-69
2021/06/18 07:44:57;;;;;;;;;;;;;;;34.94;49.91;98756.13;5106981;27;20359;-68
2021/06/18 07:47:23;;;;;;;;;;;;;;;34.38;51.72;98755.88;5088832;27;20398;-68
2021/06/18 07:49:49;;;;;;;;;;;;;;;33.52;53.84;98757.47;5107313;27;19920;-68
2021/06/18 07:52:14;;;;;;;;;;;;;;;34.90;48.65;98760.25;5107169;27;19916;-68
2021/06/18 07:54:40;;;;;;;;;;;;;;;33.08;53.67;98750.81;5107181;27;20002;-69
2021/06/18 07:57:05;;;;;;;;;;;;;;;34.05;56.32;98757.50;5107680;27;20485;-68
2021/06/18 07:59:30;;;;;;;;;;;;;;;34.43;55.34;98756.88;5107755;27;20002;-69
2021/06/18 08:01:56;;;;;;;;;;;;;;;33.72;52.78;98760.19;5107223;27;19912;-69
2021/06/18 08:04:21;;;;;;;;;;;;;;;34.56;48.14;98764.06;5088598;27;19926;-69
2021/06/18 08:06:47;;;;;;;;;;;;;;;33.61;59.61;98756.28;5106637;27;19912;-69
2021/06/18 08:09:12;;;;;;;;;;;;;;;34.44;53.98;98766.56;5089273;27;19911;-69
2021/06/18 08:11:37;;;;;;;;;;;;;;;33.23;56.40;98762.16;5105697;27;20440;-69
2021/06/18 08:14:03;;;;;;;;;;;;;;;34.66;53.03;98771.66;5107658;27;19915;-69
2021/06/18 08:16:29;;;;;;;;;;;;;;;34.54;48.35;98769.59;5106316;27;20375;-69
2021/06/18 08:18:54;;;;;;;;;;;;;;;34.44;59.52;98771.06;5089089;27;19975;-69
2021/06/18 08:21:20;;;;;;;;;;;;;;;33.17;54.94;98776.28;5107611;27;19931;-69
2021/06/18 08:23:46;;;;;;;;;;;;;;;34.53;52.23;98767.97;5088322;27;19911;-69
2021/06/18 08:26:11;;;;;;;;;;;;;;;34.56;55.18;98772.88;5107876;27;19920;-69
2021/06/18 08:28:37;;;;;;;;;;;;;;;32.76;67.18;98774.44;5106580;27;20558;-69
2021/06/18 08:31:04;;;;;;;;;;;;;;;32.23;67.36;98768.78;5106698;27;19919;-68
2021/06/18 08:33:31;;;;;;;;;;;;;;;31.81;70.98;98765.13;5107312;27;20014;-69
2021/06/18 08:35:56;;;;;;;;;;;;;;;31.34;81.57;98774.47;5109040;27;19920;-69
2021/06/18 08:38:22;;;;;;;;;;;;;;;31.44;85.11;98772.38;5109825;27;19971;-68
2021/06/18 08:40:47;;;;;;;;;;;;;;;32.08;78.00;98767.03;5109964;27;19951;-68
2021/06/18 08:43:13;;;;;;;;;;;;;;;31.54;82.45;98780.84;5109511;27;19923;-68
2021/06/18 08:45:38;;;;;;;;;;;;;;;31.21;83.69;98773.31;5092803;27;19923;-68
2021/06/18 08:48:04;;;;;;;;;;;;;;;31.21;90.88;98775.97;5108896;27;19911;-68
2021/06/18 08:50:29;;;;;;;;;;;;;;;30.85;80.41;98782.09;5110523;27;20397;-68
2021/06/18 08:52:56;;;;;;;;;;;;;;;31.01;77.20;98773.06;5109336;27;20530;-68
2021/06/18 08:55:22;;;;;;;;;;;;;;;30.75;83.27;98776.22;5109896;27;20255;-69
2021/06/18 08:57:48;;;;;;;;;;;;;;;32.54;75.50;98770.22;5091768;27;20995;-69
2021/06/18 09:00:14;;;;;;;;;;;;;;;31.38;79.31;98781.06;5090130;27;19960;-69
2021/06/18 09:02:40;;;;;;;;;;;;;;;31.41;75.45;98770.09;5110648;27;19958;-69
2021/06/18 09:05:10;;;;;;;;;;;;;;;30.89;72.24;98776.41;5109896;27;20279;-69
2021/06/18 09:07:53;;;;;;;;;;;;;;;31.99;73.47;98768.19;5110424;27;19938;-68
2021/06/18 09:10:34;;;;;;;;;;;;;;;32.27;71.80;98770.88;5110404;27;19926;-69
2021/06/18 09:13:03;;;;;;;;;;;;;;;31.85;81.60;98766.41;5109044;27;19962;-69
2021/06/18 09:15:29;;;;;;;;;;;;;;;31.88;78.85;98764.16;5109018;27;20011;-68
2021/06/18 09:17:54;;;;;;;;;;;;;;;32.43;81.71;98761.75;5091062;27;19955;-69
2021/06/18 09:20:23;;;;;;;;;;;;;;;31.88;80.78;98766.00;5109714;27;20358;-69
2021/06/18 09:22:48;;;;;;;;;;;;;;;32.30;78.88;98764.31;5109567;27;19915;-69
2021/06/18 09:25:14;;;;;;;;;;;;;;;31.67;81.48;98765.00;5111107;27;19919;-68
2021/06/18 09:27:40;;;;;;;;;;;;;;;31.30;83.09;98767.88;5091823;27;19998;-69
2021/06/18 09:30:16;;;;;;;;;;;;;;;31.65;88.51;98780.34;5107495;27;19972;-69
2021/06/18 09:32:53;;;;;;;;;;;;;;;31.09;86.00;98777.47;5108883;27;19926;-69
2021/06/18 09:35:19;;;;;;;;;;;;;;;30.65;92.29;98775.66;5091113;27;19916;-69
2021/06/18 09:37:44;;;;;;;;;;;;;;;31.41;90.50;98780.72;5089016;27;19968;-69
2021/06/18 09:40:11;;;;;;;;;;;;;;;31.08;89.38;98778.47;5091692;27;19915;-69
2021/06/18 09:42:37;;;;;;;;;;;;;;;31.62;88.59;98782.56;5103735;27;20431;-69
2021/06/18 09:45:05;;;;;;;;;;;;;;;31.14;89.22;98780.41;5090489;27;19934;-69
2021/06/18 09:47:31;;;;;;;;;;;;;;;31.48;90.16;98780.81;5108950;27;19920;-69
2021/06/18 09:49:56;;;;;;;;;;;;;;;32.20;85.48;98772.63;5090435;27;19975;-69
2021/06/18 09:52:23;;;;;;;;;;;;;;;31.43;80.94;98776.03;5113186;27;19923;-69
2021/06/18 09:54:50;;;;;;;;;;;;;;;31.48;87.86;98780.81;5091329;27;20002;-69
2021/06/18 09:57:17;;;;;;;;;;;;;;;31.14;85.31;98783.06;5108919;27;20627;-69
2021/06/18 09:59:50;;;;;;;;;;;;;;;31.38;82.52;98778.41;5090859;27;19922;-69
2021/06/18 10:02:15;;;;;;;;;;;;;;;32.00;77.34;98775.16;5113135;27;19918;-69
2021/06/18 10:04:41;;;;;;;;;;;;;;;32.25;74.81;98786.22;5108705;27;19912;-69
2021/06/18 10:07:09;;;;;;;;;;;;;;;31.58;81.11;98792.78;5104574;27;20607;-68
2021/06/18 10:09:37;;;;;;;;;;;;;;;31.72;79.52;98780.41;5090790;27;19912;-69
2021/06/18 10:12:02;;;;;;;;;;;;;;;31.66;79.88;98779.34;5110755;27;19919;-69
2021/06/18 10:14:28;;;;;;;;;;;;;;;31.64;79.35;98780.56;5090583;27;20374;-70
2021/06/18 10:16:53;;;;;;;;;;;;;;;32.13;79.16;98784.28;5090010;27;19911;-69
2021/06/18 10:19:19;;;;;;;;;;;;;;;31.33;71.41;98783.47;5090889;27;19915;-69
2021/06/18 10:21:47;;;;;;;;;;;;;;;32.90;76.98;98780.66;5088245;27;19912;-69
2021/06/18 10:24:12;;;;;;;;;;;;;;;32.53;71.03;98784.59;5089884;27;19920;-69
2021/06/18 10:26:38;;;;;;;;;;;;;;;34.50;60.64;98781.75;5088090;27;19911;-69
2021/06/18 10:29:03;;;;;;;;;;;;;;;32.45;60.13;98777.53;5090415;27;19959;-69
2021/06/18 10:31:29;;;;;;;;;;;;;;;32.73;64.24;98774.84;5108657;27;19923;-69
2021/06/18 10:34:05;;;;;;;;;;;;;;;32.18;66.45;98779.19;5108079;27;20014;-68
2021/06/18 10:36:30;;;;;;;;;;;;;;;33.90;65.74;98775.63;5088965;27;20002;-68
2021/06/18 10:39:02;;;;;;;;;;;;;;;34.25;56.51;98770.06;5107698;27;20007;-69
2021/06/18 10:41:27;;;;;;;;;;;;;;;33.06;62.89;98768.84;5109707;27;20324;-68
2021/06/18 10:43:57;;;;;;;;;;;;;;;34.61;54.35;98764.25;5107728;27;19915;-69
2021/06/18 10:46:28;;;;;;;;;;;;;;;34.95;51.16;98763.09;5091186;27;20783;-69
2021/06/18 10:48:59;;;;;;;;;;;;;;;34.72;54.71;98760.13;5109307;27;19915;-68
2021/06/18 10:51:32;;;;;;;;;;;;;;;35.92;49.70;98756.75;5107945;27;19920;-69
2021/06/18 10:54:09;;;;;;;;;;;;;;;35.43;51.96;98753.00;5107505;27;19922;-68
2021/06/18 10:56:44;;;;;;;;;;;;;;;33.60;51.14;98751.97;5107436;27;20002;-68
2021/06/18 10:59:10;;;;;;;;;;;;;;;33.88;59.98;98750.97;5107563;27;19916;-68
2021/06/18 11:01:35;;;;;;;;;;;;;;;36.70;42.96;98750.03;5108896;27;20367;-69
2021/06/18 11:04:01;;;;;;;;;;;;;;;34.87;54.08;98757.97;5090608;27;19915;-68
2021/06/18 11:06:48;;;;;;;;;;;;;;;34.97;41.76;98761.03;5108463;27;19912;-68
2021/06/18 11:09:32;;;;;;;;;;;;;;;36.29;44.62;98751.50;5108377;27;19919;-68
2021/06/18 11:11:58;;;;;;;;;;;;;;;36.55;37.36;98751.22;5108842;27;20836;-69
2021/06/18 11:14:26;;;;;;;;;;;;;;;37.05;35.42;98742.19;5089607;27;19912;-69
2021/06/18 11:16:51;;;;;;;;;;;;;;;35.79;38.88;98747.81;5089587;27;19916;-68
2021/06/18 11:19:20;;;;;;;;;;;;;;;34.67;37.42;98750.06;5088850;27;20390;-69
2021/06/18 11:21:46;;;;;;;;;;;;;;;34.75;34.20;98747.13;5090038;27;19962;-68
2021/06/18 11:24:11;;;;;;;;;;;;;;;35.39;36.92;98742.69;5108129;27;20405;-68
2021/06/18 11:26:37;;;;;;;;;;;;;;;34.70;34.59;98751.47;5090137;27;19923;-68
2021/06/18 11:29:02;;;;;;;;;;;;;;;34.07;43.89;98750.09;5107542;27;19919;-68
2021/06/18 11:31:38;;;;;;;;;;;;;;;35.50;41.25;98743.88;5087728;27;19922;-68
2021/06/18 11:34:04;;;;;;;;;;;;;;;35.63;37.66;98743.00;5088805;27;19972;-68
2021/06/18 11:36:35;;;;;;;;;;;;;;;35.44;36.39;98741.25;5089352;27;19916;-68
2021/06/18 11:39:03;;;;;;;;;;;;;;;35.61;33.66;98739.69;5107151;27;19923;-68
2021/06/18 11:41:30;;;;;;;;;;;;;;;35.32;38.41;98733.91;5106951;27;19919;-69
2021/06/18 11:43:57;;;;;;;;;;;;;;;38.06;33.08;98734.28;5108736;27;19930;-68
2021/06/18 11:46:23;;;;;;;;;;;;;;;34.94;36.98;98728.53;5107332;27;20023;-68
2021/06/18 11:48:49;;;;;;;;;;;;;;;34.04;39.71;98723.00;5109317;27;19931;-69
2021/06/18 11:51:21;;;;;;;;;;;;;;;34.55;37.25;98717.75;5112379;27;19923;-68
2021/06/18 11:53:47;;;;;;;;;;;;;;;33.57;43.87;98717.63;5089052;27;19919;-68
2021/06/18 11:56:12;;;;;;;;;;;;;;;34.86;36.17;98720.75;5088765;27;19920;-68
2021/06/18 11:58:38;;;;;;;;;;;;;;;34.40;40.09;98725.22;5090864;27;19915;-69
2021/06/18 12:01:29;;;;;;;;;;;;;;;34.48;40.73;98718.81;5111370;27;19916;-69
2021/06/18 12:03:55;;;;;;;;;;;;;;;34.74;41.43;98717.94;5105036;27;19961;-68
2021/06/18 12:06:22;;;;;;;;;;;;;;;34.75;42.73;98719.56;5105382;27;20149;-69
2021/06/18 12:09:06;;;;;;;;;;;;;;;34.88;46.53;98713.34;5091101;27;19961;-68
2021/06/18 12:11:33;;;;;;;;;;;;;;;33.53;46.61;98716.41;5108675;27;20406;-69
2021/06/18 12:13:58;;;;;;;;;;;;;;;33.05;49.13;98708.50;5091843;27;19980;-66
2021/06/18 12:16:27;;;;;;;;;;;;;;;33.39;50.74;98701.38;5111124;27;19927;-65
2021/06/18 12:18:53;;;;;;;;;;;;;;;33.11;50.57;98689.84;5091762;27;19919;-67
2021/06/18 12:21:27;;;;;;;;;;;;;;;33.82;49.12;98687.66;5109068;27;20035;-68
2021/06/18 12:24:00;;;;;;;;;;;;;;;33.62;53.55;98688.50;5090468;27;20603;-68
2021/06/18 12:26:26;;;;;;;;;;;;;;;34.13;46.33;98685.19;5088111;27;19996;-70
2021/06/18 12:28:51;;;;;;;;;;;;;;;34.82;43.86;98682.91;5090189;27;19963;-70
2021/06/18 12:31:16;;;;;;;;;;;;;;;34.92;44.59;98683.25;5087669;27;19963;-69
2021/06/18 12:33:42;;;;;;;;;;;;;;;36.05;39.81;98680.78;5089857;27;19942;-69
2021/06/18 12:36:08;;;;;;;;;;;;;;;36.40;36.55;98678.34;5108655;27;20349;-69
2021/06/18 12:38:37;;;;;;;;;;;;;;;35.94;37.64;98682.34;5090986;27;20032;-69
2021/06/18 12:41:02;;;;;;;;;;;;;;;35.90;42.20;98686.50;5111331;27;19919;-69
2021/06/18 12:43:27;;;;;;;;;;;;;;;35.26;41.19;98689.25;5112374;27;19965;-69
2021/06/18 12:45:53;;;;;;;;;;;;;;;34.94;40.78;98686.56;5094601;27;20375;-69
2021/06/18 12:48:28;;;;;;;;;;;;;;;35.51;39.10;98691.13;5110003;27;20713;-69
2021/06/18 12:51:01;;;;;;;;;;;;;;;36.94;34.80;98683.91;5092284;27;19919;-69
2021/06/18 12:53:30;;;;;;;;;;;;;;;36.56;36.17;98680.44;5092867;27;19955;-69
2021/06/18 12:55:56;;;;;;;;;;;;;;;35.24;40.95;98680.63;5110040;27;20015;-69
2021/06/18 12:58:22;;;;;;;;;;;;;;;34.15;41.66;98682.31;5111854;27;20958;-69
2021/06/18 13:00:53;;;;;;;;;;;;;;;36.78;36.26;98674.63;5093910;27;19920;-67
2021/06/18 13:03:32;;;;;;;;;;;;;;;35.62;40.60;98674.38;5091105;27;19915;-69
2021/06/18 13:05:58;;;;;;;;;;;;;;;33.93;45.93;98681.69;5091253;27;20011;-69
2021/06/18 13:08:23;;;;;;;;;;;;;;;34.64;44.13;98675.56;5091481;27;20345;-69
2021/06/18 13:10:51;;;;;;;;;;;;;;;34.47;45.90;98685.09;5110079;27;19920;-69
2021/06/18 13:13:27;;;;;;;;;;;;;;;34.34;41.67;98685.94;5116124;27;19992;-69
2021/06/18 13:15:52;;;;;;;;;;;;;;;34.96;43.03;98676.44;5092068;27;19947;-69
2021/06/18 13:18:18;;;;;;;;;;;;;;;34.53;40.40;98684.22;5109956;27;19912;-69
2021/06/18 13:20:43;;;;;;;;;;;;;;;34.70;39.71;98676.59;5089972;27;19915;-69
2021/06/18 13:23:25;;;;;;;;;;;;;;;35.22;39.81;98676.50;5106694;27;20472;-69
2021/06/18 13:26:01;;;;;;;;;;;;;;;35.08;39.86;98678.41;5108270;27;20355;-69
2021/06/18 13:28:46;;;;;;;;;;;;;;;34.44;45.14;98678.31;5090077;27;20501;-69
2021/06/18 13:31:17;;;;;;;;;;;;;;;33.79;55.46;98677.41;5090583;27;19927;-69
2021/06/18 13:33:45;;;;;;;;;;;;;;;34.03;48.04;98682.09;5109821;27;20574;-69
2021/06/18 13:36:10;;;;;;;;;;;;;;;35.02;48.17;98676.63;5108512;27;19965;-69
2021/06/18 13:38:36;;;;;;;;;;;;;;;34.73;47.76;98694.88;5108438;27;20834;-69
2021/06/18 13:41:01;;;;;;;;;;;;;;;33.29;50.54;98701.78;5108411;27;20397;-69
2021/06/18 13:43:27;;;;;;;;;;;;;;;34.57;46.12;98718.34;5108599;27;19912;-68
2021/06/18 13:45:53;;;;;;;;;;;;;;;37.03;40.39;98715.56;5109309;27;20356;-69
2021/06/18 13:48:18;;;;;;;;;;;;;;;37.88;37.22;98717.16;5091628;27;19912;-69
2021/06/18 13:50:45;;;;;;;;;;;;;;;38.00;37.09;98714.50;5110367;27;20291;-69
2021/06/18 13:53:11;;;;;;;;;;;;;;;36.89;37.42;98707.94;5090009;27;19915;-69
2021/06/18 13:55:36;;;;;;;;;;;;;;;36.71;40.35;98712.25;5108283;27;19922;-69
2021/06/18 13:58:02;;;;;;;;;;;;;;;37.52;36.67;98714.66;5091691;27;19916;-69
2021/06/18 14:00:27;;;;;;;;;;;;;;;37.92;35.91;98722.09;5108186;27;19923;-69
2021/06/18 14:02:55;;;;;;;;;;;;;;;37.21;39.52;98717.41;5109571;27;19916;-69
2021/06/18 14:05:20;;;;;;;;;;;;;;;36.62;38.33;98711.75;5088592;27;19920;-69
2021/06/18 14:07:45;;;;;;;;;;;;;;;36.15;40.47;98719.50;5108393;27;19994;-69
2021/06/18 14:10:11;;;;;;;;;;;;;;;34.06;43.68;98727.09;5108720;27;19915;-69
2021/06/18 14:12:40;;;;;;;;;;;;;;;33.13;45.09;98716.34;5108031;27;19912;-69
2021/06/18 14:15:08;;;;;;;;;;;;;;;33.48;45.52;98718.84;5089886;27;19915;-68
2021/06/18 14:17:34;;;;;;;;;;;;;;;33.25;42.34;98708.56;5107428;27;19951;-69
2021/06/18 14:20:00;;;;;;;;;;;;;;;35.32;39.36;98693.75;5108674;27;20389;-69
2021/06/18 14:22:25;;;;;;;;;;;;;;;33.71;40.71;98687.28;5090205;27;20512;-69
2021/06/18 14:24:51;;;;;;;;;;;;;;;32.99;41.51;98688.75;5087889;27;19961;-69